Terminal Aerodrome Forecast
Issued by NWS Bismarck, ND

Home | Current Version | Previous Version | Text Only | Print | Product List | Glossary On
Versions: 1 2 3 4 5 6 7 8 9 10 11 12 13 14 15 16
120
FTUS43 KBIS 161552 AAD
TAFISN
TAF AMD
KISN 161552Z 1616/1712 00000KT P6SM FEW002
     FM161630 35008KT P6SM SKC=

USA.gov is the U.S. government's official web portal to all federal, state and local government web resources and services.